createdAt,value
2022-10-11T00:00:47.370Z,18.58
2022-10-11T00:01:47.486Z,18.60
2022-10-11T00:02:47.600Z,18.60
2022-10-11T00:03:47.777Z,18.58
2022-10-11T00:04:47.945Z,18.54
2022-10-11T00:05:48.109Z,18.53
2022-10-11T00:06:48.270Z,18.48
2022-10-11T00:07:48.475Z,18.51
2022-10-11T00:08:48.600Z,18.44
2022-10-11T00:09:48.760Z,18.44
2022-10-11T00:10:48.922Z,18.41
2022-10-11T00:11:49.101Z,18.40
2022-10-11T00:12:49.270Z,18.40
2022-10-11T00:13:49.443Z,18.40
2022-10-11T00:14:49.591Z,18.35
2022-10-11T00:15:49.806Z,18.38
2022-10-11T00:16:49.975Z,18.31
2022-10-11T00:17:50.134Z,18.31
2022-10-11T00:18:50.295Z,18.33
2022-10-11T00:19:50.462Z,18.30
2022-10-11T00:20:50.620Z,18.26
2022-10-11T00:21:50.830Z,18.26
2022-10-11T00:22:51.021Z,18.25
2022-10-11T00:23:51.142Z,18.25
2022-10-11T00:24:51.326Z,18.17
2022-10-11T00:25:51.497Z,18.22
2022-10-11T00:26:51.681Z,18.17
2022-10-11T00:27:51.851Z,18.13
2022-10-11T00:28:52.058Z,18.15
2022-10-11T00:29:52.202Z,18.12
2022-10-11T00:30:52.379Z,18.08
2022-10-11T00:31:52.537Z,18.04
2022-10-11T00:32:52.697Z,18.08
2022-10-11T00:33:52.865Z,18.05
2022-10-11T00:34:53.029Z,18.05
2022-10-11T00:35:53.230Z,18.02
2022-10-11T00:36:53.355Z,17.98
2022-10-11T00:37:53.510Z,18.00
2022-10-11T00:38:53.701Z,17.97
2022-10-11T00:39:53.867Z,17.97
2022-10-11T00:40:54.044Z,17.95
2022-10-11T00:41:54.216Z,17.92
2022-10-11T00:42:54.381Z,17.89
2022-10-11T00:43:54.532Z,17.89
2022-10-11T00:44:54.691Z,17.94
2022-10-11T00:45:54.867Z,17.89
2022-10-11T00:46:56.021Z,17.86
2022-10-11T00:47:55.223Z,17.83
2022-10-11T00:48:55.371Z,17.85
2022-10-11T00:49:55.587Z,17.80
2022-10-11T00:50:55.757Z,17.78
2022-10-11T00:51:55.913Z,17.80
2022-10-11T00:52:56.114Z,17.76
2022-10-11T00:53:56.274Z,17.75
2022-10-11T00:54:56.464Z,17.76
2022-10-11T00:55:56.657Z,17.71
2022-10-11T00:56:56.813Z,17.71
2022-10-11T00:57:56.986Z,17.71
2022-10-11T00:58:57.146Z,17.70
2022-10-11T00:59:57.305Z,17.65
2022-10-11T01:00:57.533Z,17.65
2022-10-11T01:01:57.686Z,17.65
2022-10-11T01:02:57.861Z,17.62
2022-10-11T01:03:58.028Z,17.57
2022-10-11T01:05:25.137Z,17.61
2022-10-11T01:05:59.407Z,17.62
2022-10-11T01:06:58.587Z,17.58
2022-10-11T01:07:58.761Z,17.58
2022-10-11T01:08:58.934Z,17.57
2022-10-11T01:09:59.099Z,17.55
2022-10-11T01:10:59.277Z,17.52
2022-10-11T01:11:59.430Z,17.50
2022-10-11T01:12:59.593Z,17.50
2022-10-11T01:13:59.750Z,17.46
2022-10-11T01:14:59.919Z,17.46
2022-10-11T01:16:00.080Z,17.43
2022-10-11T01:17:00.289Z,17.46
2022-10-11T01:18:00.412Z,17.42
2022-10-11T01:19:00.610Z,17.40
2022-10-11T01:20:00.766Z,17.38
2022-10-11T01:21:00.931Z,17.40
2022-10-11T01:22:01.105Z,17.38
2022-10-11T01:23:01.262Z,17.34
2022-10-11T01:24:06.015Z,17.34
2022-10-11T01:25:02.613Z,17.35
2022-10-11T01:26:02.155Z,17.34
2022-10-11T01:27:01.990Z,17.34
2022-10-11T01:28:02.160Z,17.31
2022-10-11T01:29:02.324Z,17.31
2022-10-11T01:30:02.489Z,17.27
2022-10-11T01:31:02.646Z,17.28
2022-10-11T01:32:02.804Z,17.25
2022-10-11T01:33:02.990Z,17.24
2022-10-11T01:34:03.153Z,17.23
2022-10-11T01:35:03.315Z,17.20
2022-10-11T01:36:03.917Z,17.17
2022-10-11T01:37:03.666Z,17.21
2022-10-11T01:38:03.846Z,17.20
2022-10-11T01:39:04.007Z,17.15
2022-10-11T01:40:04.176Z,17.12
2022-10-11T01:41:04.362Z,17.12
2022-10-11T01:42:04.517Z,17.10
2022-10-11T01:43:04.719Z,17.10
2022-10-11T01:44:04.869Z,17.09
2022-10-11T01:45:05.076Z,17.06
2022-10-11T01:46:05.610Z,17.05
2022-10-11T01:47:05.390Z,17.05
2022-10-11T01:48:05.570Z,17.02
2022-10-11T01:49:05.741Z,17.02
2022-10-11T01:50:05.900Z,17.01
2022-10-11T01:51:06.051Z,17.01
2022-10-11T01:52:06.254Z,16.97
2022-10-11T01:53:06.426Z,16.94
2022-10-11T01:54:06.585Z,16.91
2022-10-11T01:55:10.514Z,16.94
2022-10-11T01:56:07.584Z,16.91
2022-10-11T01:57:07.158Z,16.93
2022-10-11T01:58:07.293Z,16.87
2022-10-11T01:59:07.454Z,16.84
2022-10-11T02:00:07.642Z,16.89
2022-10-11T02:01:07.869Z,16.86
2022-10-11T02:02:07.986Z,16.84
2022-10-11T02:03:08.189Z,16.83
2022-10-11T02:04:08.346Z,16.79
2022-10-11T02:05:08.512Z,16.83
2022-10-11T02:06:08.881Z,16.79
2022-10-11T02:07:08.893Z,16.79
2022-10-11T02:08:09.008Z,16.78
2022-10-11T02:09:09.198Z,16.78
2022-10-11T02:10:09.357Z,16.76
2022-10-11T02:11:09.569Z,16.76
2022-10-11T02:12:09.698Z,16.74
2022-10-11T02:13:09.891Z,16.71
2022-10-11T02:14:10.052Z,16.71
2022-10-11T02:15:10.228Z,16.69
2022-10-11T02:16:10.392Z,16.64
2022-10-11T02:17:10.570Z,16.66
2022-10-11T02:18:10.751Z,16.64
2022-10-11T02:19:10.940Z,16.62
2022-10-11T02:20:11.128Z,16.64
2022-10-11T02:21:11.290Z,16.60
2022-10-11T02:22:11.447Z,16.59
2022-10-11T02:23:11.627Z,16.59
2022-10-11T02:24:11.801Z,16.57
2022-10-11T02:25:11.961Z,16.57
2022-10-11T02:26:12.126Z,16.56
2022-10-11T02:27:12.292Z,16.53
2022-10-11T02:28:12.508Z,16.53
2022-10-11T02:29:12.631Z,16.54
2022-10-11T02:30:12.812Z,16.50
2022-10-11T02:31:12.992Z,16.50
2022-10-11T02:32:13.152Z,16.50
2022-10-11T02:33:13.326Z,16.49
2022-10-11T02:34:13.494Z,16.46
2022-10-11T02:35:13.655Z,16.44
2022-10-11T02:36:13.827Z,16.42
2022-10-11T02:37:13.985Z,16.41
2022-10-11T02:38:14.191Z,16.39
2022-10-11T02:39:14.347Z,16.41
2022-10-11T02:40:14.500Z,16.38
2022-10-11T02:41:14.685Z,16.38
2022-10-11T02:42:14.849Z,16.34
2022-10-11T02:43:15.036Z,16.34
2022-10-11T02:44:15.157Z,16.35
2022-10-11T02:45:15.326Z,16.32
2022-10-11T02:46:17.661Z,16.35
2022-10-11T02:47:15.653Z,16.34
2022-10-11T02:48:15.827Z,16.29
2022-10-11T02:49:16.010Z,16.31
2022-10-11T02:50:16.167Z,16.29
2022-10-11T02:51:16.343Z,16.31
2022-10-11T02:52:16.502Z,16.28
2022-10-11T02:53:16.684Z,16.29
2022-10-11T02:54:16.840Z,16.25
2022-10-11T02:55:17.051Z,16.26
2022-10-11T02:56:17.221Z,16.28
2022-10-11T02:57:17.352Z,16.23
2022-10-11T02:58:17.520Z,16.23
2022-10-11T02:59:17.710Z,16.21
2022-10-11T03:00:17.863Z,16.21
2022-10-11T03:01:18.130Z,16.20
2022-10-11T03:02:18.232Z,16.19
2022-10-11T03:03:18.414Z,16.20
2022-10-11T03:04:18.606Z,16.21
2022-10-11T03:05:18.802Z,16.19
2022-10-11T03:06:18.990Z,16.19
2022-10-11T03:07:19.145Z,16.19
2022-10-11T03:08:19.336Z,16.17
2022-10-11T03:09:19.488Z,16.14
2022-10-11T03:10:19.656Z,16.16
2022-10-11T03:11:19.845Z,16.14
2022-10-11T03:12:20.005Z,16.11
2022-10-11T03:13:20.176Z,16.10
2022-10-11T03:14:20.365Z,16.10
2022-10-11T03:15:20.539Z,16.05
2022-10-11T03:16:20.709Z,16.07
2022-10-11T03:17:37.313Z,16.07
2022-10-11T03:18:22.078Z,16.07
2022-10-11T03:19:21.235Z,16.10
2022-10-11T03:20:21.375Z,16.05
2022-10-11T03:21:21.568Z,16.05
2022-10-11T03:22:21.745Z,16.04
2022-10-11T03:23:21.913Z,16.02
2022-10-11T03:24:22.097Z,16.02
2022-10-11T03:25:22.261Z,15.99
2022-10-11T03:26:22.411Z,16.02
2022-10-11T03:27:22.570Z,16.01
2022-10-11T03:28:22.792Z,15.98
2022-10-11T03:29:22.955Z,15.99
2022-10-11T03:30:23.082Z,15.95
2022-10-11T03:31:23.255Z,15.98
2022-10-11T03:32:23.409Z,15.98
2022-10-11T03:33:23.574Z,15.94
2022-10-11T03:34:23.742Z,15.96
2022-10-11T03:35:23.907Z,15.95
2022-10-11T03:36:24.062Z,15.96
2022-10-11T03:37:24.257Z,15.95
2022-10-11T03:38:24.437Z,15.94
2022-10-11T03:39:24.614Z,15.91
2022-10-11T03:40:24.773Z,15.94
2022-10-11T03:41:24.935Z,15.91
2022-10-11T03:42:25.092Z,15.91
2022-10-11T03:43:25.283Z,15.86
2022-10-11T03:44:25.455Z,15.91
2022-10-11T03:45:25.620Z,15.86
2022-10-11T03:46:25.786Z,15.86
2022-10-11T03:47:25.946Z,15.84
2022-10-11T03:48:26.110Z,15.87
2022-10-11T03:49:26.327Z,15.84
2022-10-11T03:50:26.477Z,15.87
2022-10-11T03:51:26.651Z,15.84
2022-10-11T03:52:26.807Z,15.87
2022-10-11T03:53:26.981Z,15.80
2022-10-11T03:54:27.146Z,15.81
2022-10-11T03:55:27.323Z,15.80
2022-10-11T03:56:27.510Z,15.81
2022-10-11T03:57:27.632Z,15.81
2022-10-11T03:58:27.809Z,15.80
2022-10-11T03:59:27.958Z,15.81
2022-10-11T04:00:28.132Z,15.79
2022-10-11T04:01:28.293Z,15.79
2022-10-11T04:02:28.443Z,15.77
2022-10-11T04:03:28.633Z,15.76
2022-10-11T04:04:28.804Z,15.79
2022-10-11T04:05:28.968Z,15.76
2022-10-11T04:06:29.120Z,15.79
2022-10-11T04:07:29.282Z,15.76
2022-10-11T04:08:29.466Z,15.76
2022-10-11T04:09:29.685Z,15.74
2022-10-11T04:10:29.851Z,15.74
2022-10-11T04:11:30.002Z,15.70
2022-10-11T04:12:30.191Z,15.74
2022-10-11T04:13:30.406Z,15.71
2022-10-11T04:14:30.554Z,15.66
2022-10-11T04:15:30.736Z,15.68
2022-10-11T04:16:30.898Z,15.70
2022-10-11T04:17:31.059Z,15.66
2022-10-11T04:18:31.225Z,15.68
2022-10-11T04:19:31.416Z,15.66
2022-10-11T04:20:31.545Z,15.65
2022-10-11T04:21:31.793Z,15.65
2022-10-11T04:22:31.914Z,15.65
2022-10-11T04:23:32.056Z,15.65
2022-10-11T04:24:32.236Z,15.58
2022-10-11T04:25:32.387Z,15.63
2022-10-11T04:26:32.547Z,15.58
2022-10-11T04:27:32.747Z,15.58
2022-10-11T04:28:32.930Z,15.58
2022-10-11T04:29:33.097Z,15.62
2022-10-11T04:30:33.254Z,15.58
2022-10-11T04:31:33.420Z,15.62
2022-10-11T04:33:48.647Z,15.55
2022-10-11T04:34:48.817Z,15.49
2022-10-11T04:35:48.967Z,15.47
2022-10-11T04:36:50.090Z,15.43
2022-10-11T04:37:49.318Z,15.46
2022-10-11T04:38:49.482Z,15.47
2022-10-11T04:39:49.650Z,15.47
2022-10-11T04:40:49.799Z,15.45
2022-10-11T04:41:50.051Z,15.45
2022-10-11T04:42:50.122Z,15.47
2022-10-11T04:43:50.291Z,15.45
2022-10-11T04:44:50.472Z,15.43
2022-10-11T04:45:55.248Z,15.45
2022-10-11T04:46:51.814Z,15.43
2022-10-11T04:47:50.991Z,15.43
2022-10-11T04:48:51.151Z,15.43
2022-10-11T04:49:51.342Z,15.43
2022-10-11T04:50:51.463Z,15.43
2022-10-11T04:51:51.652Z,15.42
2022-10-11T04:52:51.815Z,15.43
2022-10-11T04:53:51.973Z,15.45
2022-10-11T04:54:52.143Z,15.45
2022-10-11T04:55:52.304Z,15.42
2022-10-11T04:56:52.462Z,15.40
2022-10-11T04:57:52.626Z,15.43
2022-10-11T04:58:52.789Z,15.40
2022-10-11T04:59:52.970Z,15.38
2022-10-11T05:00:53.116Z,15.40
2022-10-11T05:01:53.370Z,15.40
2022-10-11T05:02:53.484Z,15.39
2022-10-11T05:03:53.685Z,15.40
2022-10-11T05:04:53.855Z,15.40
2022-10-11T05:05:54.046Z,15.38
2022-10-11T05:06:54.200Z,15.39
2022-10-11T05:07:54.356Z,15.38
2022-10-11T05:08:54.527Z,15.38
2022-10-11T05:09:54.690Z,15.30
2022-10-11T05:10:54.855Z,15.33
2022-10-11T05:11:55.007Z,15.35
2022-10-11T05:12:55.158Z,15.33
2022-10-11T05:13:55.362Z,15.35
2022-10-11T05:14:55.519Z,15.33
2022-10-11T05:15:55.713Z,15.32
2022-10-11T05:16:55.875Z,15.30
2022-10-11T05:17:56.040Z,15.32
2022-10-11T05:18:56.202Z,15.33
2022-10-11T05:19:56.372Z,15.27
2022-10-11T05:20:56.526Z,15.28
2022-10-11T05:21:56.721Z,15.30
2022-10-11T05:22:56.882Z,15.32
2022-10-11T05:23:57.073Z,15.30
2022-10-11T05:24:57.232Z,15.30
2022-10-11T05:25:57.418Z,15.27
2022-10-11T05:27:02.343Z,15.28
2022-10-11T05:27:58.753Z,15.25
2022-10-11T05:28:57.944Z,15.27
2022-10-11T05:29:58.114Z,15.30
2022-10-11T05:30:58.283Z,15.24
2022-10-11T05:31:58.474Z,15.27
2022-10-11T05:32:58.615Z,15.25
2022-10-11T05:33:58.794Z,15.25
2022-10-11T05:34:58.985Z,15.22
2022-10-11T05:35:59.166Z,15.25
2022-10-11T05:36:59.355Z,15.24
2022-10-11T05:37:59.533Z,15.22
2022-10-11T05:38:59.709Z,15.20
2022-10-11T05:39:59.905Z,15.20
2022-10-11T05:41:00.074Z,15.22
2022-10-11T05:42:00.206Z,15.20
2022-10-11T05:43:00.386Z,15.22
2022-10-11T05:44:00.572Z,15.18
2022-10-11T05:45:00.765Z,15.20
2022-10-11T05:46:00.938Z,15.18
2022-10-11T05:47:01.100Z,15.18
2022-10-11T05:48:01.279Z,15.18
2022-10-11T05:49:01.448Z,15.18
2022-10-11T05:50:01.640Z,15.09
2022-10-11T05:51:01.788Z,15.17
2022-10-11T05:52:01.969Z,15.17
2022-10-11T05:53:02.141Z,15.15
2022-10-11T05:54:02.339Z,15.15
2022-10-11T05:55:02.479Z,15.10
2022-10-11T05:56:02.954Z,15.17
2022-10-11T05:57:02.819Z,15.15
2022-10-11T05:58:03.001Z,15.12
2022-10-11T05:59:03.179Z,15.15
2022-10-11T06:00:03.332Z,15.10
2022-10-11T06:01:03.557Z,15.15
2022-10-11T06:02:03.691Z,15.15
2022-10-11T06:03:03.861Z,15.10
2022-10-11T06:04:04.052Z,15.10
2022-10-11T06:05:04.243Z,15.12
2022-10-11T06:06:04.728Z,15.09
2022-10-11T06:07:04.560Z,15.10
2022-10-11T06:08:04.732Z,15.15
2022-10-11T06:09:04.924Z,15.14
2022-10-11T06:10:05.085Z,15.10
2022-10-11T06:11:08.165Z,15.12
2022-10-11T06:12:06.463Z,15.12
2022-10-11T06:13:05.618Z,15.10
2022-10-11T06:14:05.815Z,15.10
2022-10-11T06:15:05.974Z,15.10
2022-10-11T06:16:06.555Z,15.12
2022-10-11T06:17:06.287Z,15.12
2022-10-11T06:18:06.477Z,15.12
2022-10-11T06:19:06.657Z,15.12
2022-10-11T06:20:06.845Z,15.12
2022-10-11T06:21:06.996Z,15.14
2022-10-11T06:22:07.171Z,15.10
2022-10-11T06:23:07.346Z,15.12
2022-10-11T06:24:07.534Z,15.10
2022-10-11T06:25:07.690Z,15.17
2022-10-11T06:26:08.604Z,15.12
2022-10-11T06:27:08.047Z,15.14
2022-10-11T06:28:08.293Z,15.10
2022-10-11T06:29:09.400Z,15.14
2022-10-11T06:30:08.599Z,15.17
2022-10-11T06:31:08.779Z,15.10
2022-10-11T06:32:08.960Z,15.15
2022-10-11T06:33:09.139Z,15.14
2022-10-11T06:34:09.329Z,15.18
2022-10-11T06:35:09.503Z,15.14
2022-10-11T06:36:09.822Z,15.17
2022-10-11T06:37:09.860Z,15.17
2022-10-11T06:38:10.047Z,15.17
2022-10-11T06:39:10.206Z,15.14
2022-10-11T06:40:10.391Z,15.18
2022-10-11T06:41:10.531Z,15.21
2022-10-11T06:42:10.716Z,15.17
2022-10-11T06:43:10.892Z,15.21
2022-10-11T06:44:14.196Z,15.18
2022-10-11T06:45:11.235Z,15.21
2022-10-11T06:46:11.413Z,15.20
2022-10-11T06:47:11.597Z,15.21
2022-10-11T06:48:11.793Z,15.21
2022-10-11T06:49:12.004Z,15.22
2022-10-11T06:50:12.114Z,15.21
2022-10-11T06:51:12.305Z,15.22
2022-10-11T06:52:12.466Z,15.22
2022-10-11T06:53:12.630Z,15.21
2022-10-11T06:54:12.806Z,15.22
2022-10-11T06:55:12.946Z,15.22
2022-10-11T06:56:13.137Z,15.25
2022-10-11T06:57:13.315Z,15.25
2022-10-11T06:58:13.496Z,15.27
2022-10-11T06:59:13.697Z,15.28
2022-10-11T07:00:13.835Z,15.27
2022-10-11T07:01:14.225Z,15.27
2022-10-11T07:02:14.177Z,15.27
2022-10-11T07:03:14.358Z,15.32
2022-10-11T07:04:14.528Z,15.32
2022-10-11T07:05:14.687Z,15.32
2022-10-11T07:06:14.878Z,15.33
2022-10-11T07:07:15.056Z,15.32
2022-10-11T07:08:15.244Z,15.33
2022-10-11T07:09:15.423Z,15.35
2022-10-11T07:10:15.589Z,15.35
2022-10-11T07:11:15.773Z,15.32
2022-10-11T07:12:15.940Z,15.38
2022-10-11T07:13:17.366Z,15.36
2022-10-11T07:14:16.300Z,15.39
2022-10-11T07:15:16.440Z,15.40
2022-10-11T07:16:16.629Z,15.39
2022-10-11T07:17:16.820Z,15.42
2022-10-11T07:18:16.971Z,15.40
2022-10-11T07:19:17.401Z,15.46
2022-10-11T07:20:17.322Z,15.46
2022-10-11T07:21:17.502Z,15.43
2022-10-11T07:22:17.693Z,15.45
2022-10-11T07:23:17.865Z,15.51
2022-10-11T07:24:18.056Z,15.53
2022-10-11T07:25:18.213Z,15.55
2022-10-11T07:26:18.405Z,15.55
2022-10-11T07:27:18.595Z,15.55
2022-10-11T07:28:18.814Z,15.55
2022-10-11T07:29:18.953Z,15.58
2022-10-11T07:30:19.133Z,15.58
2022-10-11T07:31:19.296Z,15.66
2022-10-11T07:32:19.486Z,15.70
2022-10-11T07:33:19.683Z,15.74
2022-10-11T07:34:19.852Z,15.80
2022-10-11T07:35:20.027Z,15.86
2022-10-11T07:36:20.207Z,15.95
2022-10-11T07:37:20.397Z,16.01
2022-10-11T07:38:20.577Z,16.10
2022-10-11T07:39:20.776Z,16.14
2022-10-11T07:40:20.937Z,16.19
2022-10-11T07:41:21.108Z,16.23
2022-10-11T07:42:21.336Z,16.34
2022-10-11T07:43:21.476Z,16.41
2022-10-11T07:44:21.678Z,16.51
2022-10-11T07:45:21.836Z,16.59
2022-10-11T07:46:21.988Z,16.68
2022-10-11T07:47:22.158Z,16.84
2022-10-11T07:48:22.327Z,16.96
2022-10-11T07:49:22.521Z,17.15
2022-10-11T07:50:22.692Z,17.43
2022-10-11T07:51:22.890Z,17.98
2022-10-11T07:52:23.051Z,18.71
2022-10-11T07:53:23.231Z,19.40
2022-10-11T07:54:23.432Z,20.08
2022-10-11T07:55:23.602Z,20.60
2022-10-11T07:56:23.782Z,20.86
2022-10-11T07:57:23.964Z,20.76
2022-10-11T07:58:24.142Z,20.59
2022-10-11T07:59:24.571Z,20.48
2022-10-11T08:00:24.487Z,20.60
2022-10-11T08:01:24.720Z,20.61
2022-10-11T08:02:24.923Z,20.49
2022-10-11T08:03:24.975Z,20.38
2022-10-11T08:04:25.175Z,20.26
2022-10-11T08:05:25.305Z,20.20
2022-10-11T08:06:25.480Z,20.14
2022-10-11T08:07:25.657Z,20.09
2022-10-11T08:08:25.849Z,20.05
2022-10-11T08:09:26.036Z,20.01
2022-10-11T08:10:26.186Z,19.99
2022-10-11T08:11:26.373Z,19.93
2022-10-11T08:12:26.559Z,19.93
2022-10-11T08:13:26.739Z,19.89
2022-10-11T08:14:26.930Z,19.85
2022-10-11T08:15:27.073Z,19.83
2022-10-11T08:16:27.262Z,19.82
2022-10-11T08:17:27.449Z,19.82
2022-10-11T08:18:27.630Z,19.81
2022-10-11T08:19:27.840Z,19.77
2022-10-11T08:20:27.979Z,19.81
2022-10-11T08:21:28.162Z,19.81
2022-10-11T08:22:28.348Z,19.79
2022-10-11T08:23:28.542Z,19.85
2022-10-11T08:24:28.691Z,19.82
2022-10-11T08:25:28.891Z,19.83
2022-10-11T08:26:29.033Z,19.90
2022-10-11T08:27:29.208Z,19.90
2022-10-11T08:28:29.467Z,19.93
2022-10-11T08:29:29.553Z,19.98
2022-10-11T08:30:29.775Z,19.98
2022-10-11T08:31:29.933Z,20.01
2022-10-11T08:32:30.114Z,20.04
2022-10-11T08:33:30.333Z,20.09
2022-10-11T08:34:30.455Z,20.06
2022-10-11T08:35:30.645Z,20.12
2022-10-11T08:36:30.831Z,20.14
2022-10-11T08:37:31.015Z,20.19
2022-10-11T08:38:31.207Z,20.17
2022-10-11T08:39:31.384Z,20.26
2022-10-11T08:40:35.148Z,20.23
2022-10-11T08:41:31.747Z,20.27
2022-10-11T08:42:31.916Z,20.29
2022-10-11T08:43:32.118Z,20.31
2022-10-11T08:44:46.420Z,20.33
2022-10-11T08:45:33.440Z,20.39
2022-10-11T08:46:32.599Z,20.44
2022-10-11T08:47:32.780Z,20.45
2022-10-11T08:48:33.000Z,20.45
2022-10-11T08:49:33.160Z,20.51
2022-10-11T08:50:33.305Z,20.56
2022-10-11T08:51:33.480Z,20.57
2022-10-11T08:52:33.664Z,20.57
2022-10-11T08:53:33.841Z,20.64
2022-10-11T08:54:34.027Z,20.69
2022-10-11T08:55:34.186Z,20.72
2022-10-11T08:56:34.343Z,20.76
2022-10-11T08:57:34.522Z,20.76
2022-10-11T08:58:34.702Z,20.84
2022-10-11T08:59:34.874Z,20.84
2022-10-11T09:00:35.028Z,20.93
2022-10-11T09:01:35.282Z,20.96
2022-10-11T09:03:02.917Z,21.03
2022-10-11T09:03:36.533Z,21.06
2022-10-11T09:04:35.728Z,21.07
2022-10-11T09:05:35.896Z,21.15
2022-10-11T09:06:36.056Z,21.21
2022-10-11T09:07:36.234Z,21.26
2022-10-11T09:08:36.396Z,21.37
2022-10-11T09:09:36.566Z,21.35
2022-10-11T09:10:36.726Z,21.39
2022-10-11T09:11:36.936Z,21.47
2022-10-11T09:12:40.699Z,21.53
2022-10-11T09:13:37.267Z,21.57
2022-10-11T09:14:37.439Z,21.62
2022-10-11T09:15:37.619Z,21.68
2022-10-11T09:16:37.798Z,21.71
2022-10-11T09:17:37.958Z,21.75
2022-10-11T09:18:38.119Z,21.82
2022-10-11T09:19:38.286Z,21.89
2022-10-11T09:20:38.599Z,21.90
2022-10-11T09:21:38.640Z,21.94
2022-10-11T09:22:38.801Z,22.04
2022-10-11T09:23:38.961Z,22.02
2022-10-11T09:24:39.134Z,22.09
2022-10-11T09:25:39.292Z,22.15
2022-10-11T09:26:39.451Z,22.19
2022-10-11T09:28:01.304Z,22.29
2022-10-11T09:28:40.832Z,22.30
2022-10-11T09:29:39.943Z,22.36
2022-10-11T09:30:40.114Z,22.45
2022-10-11T09:31:40.274Z,22.45
2022-10-11T09:32:40.445Z,22.52
2022-10-11T09:33:40.630Z,22.59
2022-10-11T09:34:40.776Z,22.64
2022-10-11T09:35:40.936Z,22.66
2022-10-11T09:36:41.095Z,22.74
2022-10-11T09:37:41.262Z,22.82
2022-10-11T09:38:41.426Z,22.87
2022-10-11T09:39:41.590Z,22.90
2022-10-11T09:40:41.746Z,22.97
2022-10-11T09:41:41.938Z,23.02
2022-10-11T09:42:42.086Z,23.09
2022-10-11T09:43:42.258Z,23.12
2022-10-11T09:44:42.426Z,23.19
2022-10-11T09:45:45.716Z,23.26
2022-10-11T09:46:43.778Z,23.30
2022-10-11T09:47:42.974Z,23.38
2022-10-11T09:48:43.138Z,23.44
2022-10-11T09:49:43.346Z,23.51
2022-10-11T09:50:43.501Z,23.56
2022-10-11T09:51:43.681Z,23.63
2022-10-11T09:52:43.880Z,23.67
2022-10-11T09:53:44.042Z,23.72
2022-10-11T09:54:44.241Z,23.85
2022-10-11T09:55:44.393Z,23.90
2022-10-11T09:56:44.572Z,23.96
2022-10-11T09:57:44.754Z,24.01
2022-10-11T09:58:44.944Z,24.08
2022-10-11T09:59:45.119Z,24.17
2022-10-11T10:00:45.297Z,24.17
2022-10-11T10:01:45.532Z,24.27
2022-10-11T10:02:45.635Z,24.29
2022-10-11T10:03:45.829Z,24.36
2022-10-11T10:04:45.976Z,24.39
2022-10-11T10:05:46.156Z,24.47
2022-10-11T10:06:46.335Z,24.50
2022-10-11T10:07:46.513Z,24.54
2022-10-11T10:08:46.707Z,24.60
2022-10-11T10:09:46.852Z,24.61
2022-10-11T10:10:47.028Z,24.71
2022-10-11T10:11:47.207Z,24.72
2022-10-11T10:12:47.378Z,24.73
2022-10-11T10:13:47.577Z,24.84
2022-10-11T10:14:47.719Z,24.84
2022-10-11T10:15:47.941Z,24.91
2022-10-11T10:16:48.073Z,24.96
2022-10-11T10:17:48.269Z,24.98
2022-10-11T10:18:48.442Z,25.03
2022-10-11T10:19:48.620Z,25.08
2022-10-11T10:20:48.791Z,25.12
2022-10-11T10:21:48.976Z,25.15
2022-10-11T10:22:49.204Z,25.24
2022-10-11T10:23:49.344Z,25.28
2022-10-11T10:24:49.520Z,25.34
2022-10-11T10:25:49.705Z,25.38
2022-10-11T10:26:49.896Z,25.45
2022-10-11T10:27:50.074Z,25.45
2022-10-11T10:28:50.599Z,25.49
2022-10-11T10:29:50.393Z,25.55
2022-10-11T10:30:50.569Z,25.53
2022-10-11T10:32:51.925Z,25.50
2022-10-11T10:33:51.090Z,25.49
2022-10-11T10:34:51.246Z,25.50
2022-10-11T10:35:51.406Z,25.58
2022-10-11T10:36:51.578Z,25.58
2022-10-11T10:37:51.742Z,25.61
2022-10-11T10:38:52.412Z,25.63
2022-10-11T10:39:52.058Z,25.65
2022-10-11T10:40:52.219Z,25.68
2022-10-11T10:41:52.400Z,25.76
2022-10-11T10:42:52.538Z,25.74
2022-10-11T10:43:52.719Z,25.69
2022-10-11T10:44:52.911Z,25.66
2022-10-11T10:45:53.080Z,25.71
2022-10-11T10:46:53.281Z,25.69
2022-10-11T10:47:53.422Z,25.68
2022-10-11T10:49:55.304Z,25.55
2022-10-11T10:50:53.941Z,25.59
2022-10-11T10:51:54.122Z,25.63
2022-10-11T10:52:54.262Z,25.66
2022-10-11T10:53:54.436Z,25.69
2022-10-11T10:54:54.584Z,25.72
2022-10-11T10:55:54.764Z,25.78
2022-10-11T10:56:54.955Z,25.83
2022-10-11T10:57:55.106Z,25.84
2022-10-11T10:58:55.284Z,25.90
2022-10-11T10:59:55.443Z,25.88
2022-10-11T11:00:55.631Z,25.87
2022-10-11T11:01:55.873Z,25.86
2022-10-11T11:02:56.052Z,25.80
2022-10-11T11:03:56.132Z,25.78
2022-10-11T11:04:56.362Z,25.76
2022-10-11T11:05:56.492Z,25.76
2022-10-11T11:06:56.699Z,25.69
2022-10-11T11:07:56.835Z,25.63
2022-10-11T11:08:57.031Z,25.61
2022-10-11T11:09:57.178Z,25.53
2022-10-11T11:10:57.359Z,25.61
2022-10-11T11:11:57.550Z,25.68
2022-10-11T11:12:57.739Z,25.71
2022-10-11T11:13:57.901Z,25.69
2022-10-11T11:14:58.081Z,25.81
2022-10-11T11:15:58.249Z,25.83
2022-10-11T11:16:58.441Z,25.78
2022-10-11T11:17:58.601Z,25.78
2022-10-11T11:18:58.784Z,25.87
2022-10-11T11:19:58.976Z,25.95
2022-10-11T11:20:59.143Z,25.99
2022-10-11T11:21:59.345Z,26.05
2022-10-11T11:22:59.515Z,26.13
2022-10-11T11:23:59.695Z,26.14
2022-10-11T11:24:59.956Z,26.25
2022-10-11T11:26:00.056Z,26.33
2022-10-11T11:27:00.268Z,26.39
2022-10-11T11:28:00.425Z,26.45
2022-10-11T11:29:00.586Z,26.45
2022-10-11T11:30:00.746Z,26.50
2022-10-11T11:31:00.938Z,26.48
2022-10-11T11:32:01.107Z,26.46
2022-10-11T11:33:01.269Z,26.42
2022-10-11T11:34:01.409Z,26.40
2022-10-11T11:35:01.593Z,26.40
2022-10-11T11:36:01.877Z,26.38
2022-10-11T11:37:01.924Z,26.36
2022-10-11T11:38:06.227Z,26.48
2022-10-11T11:39:02.296Z,26.65
2022-10-11T11:40:02.476Z,26.97
2022-10-11T11:41:02.953Z,27.37
2022-10-11T11:42:02.800Z,27.76
2022-10-11T11:43:03.003Z,27.99
2022-10-11T11:44:03.170Z,28.03
2022-10-11T11:45:03.352Z,27.85
2022-10-11T11:46:03.530Z,27.63
2022-10-11T11:47:03.736Z,27.49
2022-10-11T11:48:03.866Z,27.47
2022-10-11T11:49:04.049Z,27.48
2022-10-11T11:50:04.235Z,27.49
2022-10-11T11:51:04.713Z,27.52
2022-10-11T11:52:04.565Z,27.57
2022-10-11T11:53:04.763Z,27.63
2022-10-11T11:54:04.910Z,27.63
2022-10-11T11:55:05.087Z,27.69
2022-10-11T11:56:05.292Z,27.74
2022-10-11T11:57:05.437Z,27.78
2022-10-11T11:58:07.223Z,27.81
2022-10-11T11:59:05.773Z,27.84
2022-10-11T12:00:05.959Z,27.88
2022-10-11T12:01:06.418Z,27.94
2022-10-11T12:02:06.387Z,27.88
2022-10-11T12:03:06.500Z,27.88
2022-10-11T12:04:06.680Z,27.97
2022-10-11T12:05:06.864Z,28.01
2022-10-11T12:06:07.052Z,28.04
2022-10-11T12:07:22.124Z,28.00
2022-10-11T12:08:08.412Z,27.94
2022-10-11T12:09:07.574Z,27.95
2022-10-11T12:10:07.764Z,27.95
2022-10-11T12:11:08.142Z,28.03
2022-10-11T12:12:08.096Z,28.04
2022-10-11T12:13:08.256Z,28.04
2022-10-11T12:14:08.457Z,28.01
2022-10-11T12:15:08.645Z,28.04
2022-10-11T12:16:08.809Z,28.03
2022-10-11T12:17:08.998Z,28.13
2022-10-11T12:18:09.146Z,28.13
2022-10-11T12:19:09.356Z,28.10
2022-10-11T12:20:09.562Z,28.06
2022-10-11T12:21:09.834Z,28.00
2022-10-11T12:22:09.887Z,27.97
2022-10-11T12:23:10.038Z,28.03
2022-10-11T12:24:10.198Z,27.99
2022-10-11T12:25:13.799Z,28.03
2022-10-11T12:26:11.563Z,28.10
2022-10-11T12:27:10.738Z,28.11
2022-10-11T12:28:10.915Z,28.16
2022-10-11T12:29:11.062Z,28.22
2022-10-11T12:30:11.239Z,28.23
2022-10-11T12:31:11.423Z,28.36
2022-10-11T12:32:11.611Z,28.40
2022-10-11T12:33:11.776Z,28.48
2022-10-11T12:34:11.923Z,28.53
2022-10-11T12:35:12.107Z,28.57
2022-10-11T12:36:12.472Z,28.61
2022-10-11T12:37:12.464Z,28.67
2022-10-11T12:38:12.623Z,28.73
2022-10-11T12:39:12.801Z,28.81
2022-10-11T12:40:12.974Z,28.90
2022-10-11T12:41:13.169Z,28.96
2022-10-11T12:42:13.319Z,29.01
2022-10-11T12:43:13.496Z,29.09
2022-10-11T12:44:13.680Z,29.16
2022-10-11T12:45:13.886Z,29.22
2022-10-11T12:46:14.022Z,29.34
2022-10-11T12:47:14.218Z,29.41
2022-10-11T12:48:14.391Z,29.42
2022-10-11T12:49:14.568Z,29.49
2022-10-11T12:50:14.770Z,29.57
2022-10-11T12:51:14.928Z,29.62
2022-10-11T12:52:15.108Z,29.67
2022-10-11T12:53:15.291Z,29.71
2022-10-11T12:54:27.115Z,29.71
2022-10-11T12:55:16.631Z,29.75
2022-10-11T12:56:15.844Z,29.76
2022-10-11T12:57:15.992Z,29.87
2022-10-11T12:58:16.156Z,29.92